sensor_id;sensor_type;location;lat;lon;timestamp;P1;durP1;ratioP1;P2;durP2;ratioP2
15952;SDS011;8075;47.766;8.846;2023-06-14T00:01:57;2.65;;;2.40;;
15952;SDS011;8075;47.766;8.846;2023-06-14T00:04:23;3.03;;;2.72;;
15952;SDS011;8075;47.766;8.846;2023-06-14T00:06:50;2.80;;;2.35;;
15952;SDS011;8075;47.766;8.846;2023-06-14T00:09:16;2.83;;;2.47;;
15952;SDS011;8075;47.766;8.846;2023-06-14T00:11:42;2.92;;;2.60;;
15952;SDS011;8075;47.766;8.846;2023-06-14T00:14:08;2.72;;;2.47;;
15952;SDS011;8075;47.766;8.846;2023-06-14T00:16:35;3.60;;;2.75;;
15952;SDS011;8075;47.766;8.846;2023-06-14T00:19:02;5.00;;;2.55;;
15952;SDS011;8075;47.766;8.846;2023-06-14T00:21:28;3.35;;;3.05;;
15952;SDS011;8075;47.766;8.846;2023-06-14T00:23:55;3.30;;;3.00;;
15952;SDS011;8075;47.766;8.846;2023-06-14T00:26:21;4.00;;;2.87;;
15952;SDS011;8075;47.766;8.846;2023-06-14T00:28:47;2.80;;;2.60;;
15952;SDS011;8075;47.766;8.846;2023-06-14T00:31:13;3.47;;;2.90;;
15952;SDS011;8075;47.766;8.846;2023-06-14T00:33:39;3.45;;;2.60;;
15952;SDS011;8075;47.766;8.846;2023-06-14T00:36:05;2.90;;;2.60;;
15952;SDS011;8075;47.766;8.846;2023-06-14T00:38:31;3.60;;;2.78;;
15952;SDS011;8075;47.766;8.846;2023-06-14T00:40:57;3.05;;;2.65;;
15952;SDS011;8075;47.766;8.846;2023-06-14T00:43:23;2.88;;;2.67;;
15952;SDS011;8075;47.766;8.846;2023-06-14T00:45:49;3.08;;;2.47;;
15952;SDS011;8075;47.766;8.846;2023-06-14T00:48:16;3.33;;;2.63;;
15952;SDS011;8075;47.766;8.846;2023-06-14T00:50:42;3.30;;;3.00;;
15952;SDS011;8075;47.766;8.846;2023-06-14T00:53:10;2.78;;;2.45;;
15952;SDS011;8075;47.766;8.846;2023-06-14T00:55:36;3.77;;;2.70;;
15952;SDS011;8075;47.766;8.846;2023-06-14T00:58:02;3.03;;;2.72;;
15952;SDS011;8075;47.766;8.846;2023-06-14T01:00:28;2.83;;;2.63;;
15952;SDS011;8075;47.766;8.846;2023-06-14T01:02:54;2.83;;;2.60;;
15952;SDS011;8075;47.766;8.846;2023-06-14T01:05:21;3.58;;;2.80;;
15952;SDS011;8075;47.766;8.846;2023-06-14T01:15:47;2.88;;;2.67;;
15952;SDS011;8075;47.766;8.846;2023-06-14T01:18:13;2.80;;;2.55;;
15952;SDS011;8075;47.766;8.846;2023-06-14T01:20:42;3.05;;;2.75;;
15952;SDS011;8075;47.766;8.846;2023-06-14T01:23:09;3.40;;;2.83;;
15952;SDS011;8075;47.766;8.846;2023-06-14T01:25:37;3.13;;;2.83;;
15952;SDS011;8075;47.766;8.846;2023-06-14T01:28:04;3.15;;;2.65;;
15952;SDS011;8075;47.766;8.846;2023-06-14T01:30:35;3.05;;;2.80;;
15952;SDS011;8075;47.766;8.846;2023-06-14T01:33:02;3.97;;;2.80;;
15952;SDS011;8075;47.766;8.846;2023-06-14T01:35:28;2.90;;;2.60;;
15952;SDS011;8075;47.766;8.846;2023-06-14T01:37:54;3.60;;;2.90;;
15952;SDS011;8075;47.766;8.846;2023-06-14T01:40:21;3.78;;;2.85;;
15952;SDS011;8075;47.766;8.846;2023-06-14T01:42:47;3.13;;;2.88;;
15952;SDS011;8075;47.766;8.846;2023-06-14T01:45:15;2.63;;;2.42;;
15952;SDS011;8075;47.766;8.846;2023-06-14T01:47:41;2.90;;;2.70;;
15952;SDS011;8075;47.766;8.846;2023-06-14T01:50:07;3.35;;;3.00;;
15952;SDS011;8075;47.766;8.846;2023-06-14T01:52:33;3.83;;;2.83;;
15952;SDS011;8075;47.766;8.846;2023-06-14T01:54:59;3.08;;;2.65;;
15952;SDS011;8075;47.766;8.846;2023-06-14T01:57:28;4.15;;;3.00;;
15952;SDS011;8075;47.766;8.846;2023-06-14T01:59:54;5.15;;;2.95;;
15952;SDS011;8075;47.766;8.846;2023-06-14T02:02:20;4.63;;;2.75;;
15952;SDS011;8075;47.766;8.846;2023-06-14T02:04:46;3.20;;;2.70;;
15952;SDS011;8075;47.766;8.846;2023-06-14T02:07:13;3.17;;;2.83;;
15952;SDS011;8075;47.766;8.846;2023-06-14T02:09:39;5.73;;;2.80;;
15952;SDS011;8075;47.766;8.846;2023-06-14T02:12:06;3.72;;;2.83;;
15952;SDS011;8075;47.766;8.846;2023-06-14T02:14:32;2.97;;;2.67;;
15952;SDS011;8075;47.766;8.846;2023-06-14T02:16:58;2.92;;;2.63;;
15952;SDS011;8075;47.766;8.846;2023-06-14T02:19:26;4.13;;;2.92;;
15952;SDS011;8075;47.766;8.846;2023-06-14T02:21:52;3.63;;;3.00;;
15952;SDS011;8075;47.766;8.846;2023-06-14T02:24:18;2.93;;;2.73;;
15952;SDS011;8075;47.766;8.846;2023-06-14T02:26:45;3.10;;;2.87;;
15952;SDS011;8075;47.766;8.846;2023-06-14T02:29:11;3.20;;;3.00;;
15952;SDS011;8075;47.766;8.846;2023-06-14T02:31:39;3.10;;;2.80;;
15952;SDS011;8075;47.766;8.846;2023-06-14T02:34:05;3.75;;;2.90;;
15952;SDS011;8075;47.766;8.846;2023-06-14T02:36:34;4.63;;;2.85;;
15952;SDS011;8075;47.766;8.846;2023-06-14T02:39:00;4.05;;;2.83;;
15952;SDS011;8075;47.766;8.846;2023-06-14T02:41:26;2.70;;;2.50;;
15952;SDS011;8075;47.766;8.846;2023-06-14T02:43:52;3.10;;;2.58;;
15952;SDS011;8075;47.766;8.846;2023-06-14T02:46:18;3.17;;;2.92;;
15952;SDS011;8075;47.766;8.846;2023-06-14T02:48:44;4.50;;;2.70;;
15952;SDS011;8075;47.766;8.846;2023-06-14T02:51:10;3.08;;;2.72;;
15952;SDS011;8075;47.766;8.846;2023-06-14T02:53:37;3.40;;;2.80;;
15952;SDS011;8075;47.766;8.846;2023-06-14T02:56:03;3.30;;;2.97;;
15952;SDS011;8075;47.766;8.846;2023-06-14T02:58:30;2.97;;;2.67;;
15952;SDS011;8075;47.766;8.846;2023-06-14T03:00:56;3.08;;;2.88;;
15952;SDS011;8075;47.766;8.846;2023-06-14T03:03:22;3.17;;;2.70;;
15952;SDS011;8075;47.766;8.846;2023-06-14T03:05:49;3.45;;;3.13;;
15952;SDS011;8075;47.766;8.846;2023-06-14T03:08:16;3.17;;;2.88;;
15952;SDS011;8075;47.766;8.846;2023-06-14T03:10:47;3.28;;;3.00;;
15952;SDS011;8075;47.766;8.846;2023-06-14T03:13:13;2.90;;;2.60;;
15952;SDS011;8075;47.766;8.846;2023-06-14T03:15:40;3.25;;;2.92;;
15952;SDS011;8075;47.766;8.846;2023-06-14T03:18:09;2.92;;;2.70;;
15952;SDS011;8075;47.766;8.846;2023-06-14T03:20:36;4.25;;;3.13;;
15952;SDS011;8075;47.766;8.846;2023-06-14T03:23:03;3.30;;;2.83;;
15952;SDS011;8075;47.766;8.846;2023-06-14T03:25:30;4.95;;;2.95;;
15952;SDS011;8075;47.766;8.846;2023-06-14T03:27:56;3.42;;;3.10;;
15952;SDS011;8075;47.766;8.846;2023-06-14T03:30:22;2.97;;;2.75;;
15952;SDS011;8075;47.766;8.846;2023-06-14T03:32:48;3.50;;;3.13;;
15952;SDS011;8075;47.766;8.846;2023-06-14T03:35:15;2.90;;;2.70;;
15952;SDS011;8075;47.766;8.846;2023-06-14T03:37:45;3.25;;;2.95;;
15952;SDS011;8075;47.766;8.846;2023-06-14T03:40:12;3.55;;;3.05;;
15952;SDS011;8075;47.766;8.846;2023-06-14T03:42:38;3.72;;;2.92;;
15952;SDS011;8075;47.766;8.846;2023-06-14T03:45:05;3.00;;;2.75;;
15952;SDS011;8075;47.766;8.846;2023-06-14T03:47:32;2.80;;;2.60;;
15952;SDS011;8075;47.766;8.846;2023-06-14T03:49:58;3.30;;;3.00;;
15952;SDS011;8075;47.766;8.846;2023-06-14T03:52:25;3.13;;;2.83;;
15952;SDS011;8075;47.766;8.846;2023-06-14T03:54:52;4.63;;;3.10;;
15952;SDS011;8075;47.766;8.846;2023-06-14T03:57:18;3.13;;;2.83;;
15952;SDS011;8075;47.766;8.846;2023-06-14T03:59:45;3.50;;;2.70;;
15952;SDS011;8075;47.766;8.846;2023-06-14T04:02:12;3.33;;;3.00;;
15952;SDS011;8075;47.766;8.846;2023-06-14T04:04:40;4.45;;;2.78;;
15952;SDS011;8075;47.766;8.846;2023-06-14T04:07:09;3.40;;;3.10;;
15952;SDS011;8075;47.766;8.846;2023-06-14T04:09:35;2.97;;;2.75;;
15952;SDS011;8075;47.766;8.846;2023-06-14T04:12:00;3.30;;;3.00;;
15952;SDS011;8075;47.766;8.846;2023-06-14T04:14:26;3.05;;;2.75;;
15952;SDS011;8075;47.766;8.846;2023-06-14T04:16:52;3.70;;;2.70;;
15952;SDS011;8075;47.766;8.846;2023-06-14T04:19:18;3.80;;;2.90;;
15952;SDS011;8075;47.766;8.846;2023-06-14T04:21:45;3.00;;;2.80;;
15952;SDS011;8075;47.766;8.846;2023-06-14T04:24:11;3.15;;;2.85;;
15952;SDS011;8075;47.766;8.846;2023-06-14T04:26:42;3.25;;;2.75;;
15952;SDS011;8075;47.766;8.846;2023-06-14T04:29:12;3.75;;;2.70;;
15952;SDS011;8075;47.766;8.846;2023-06-14T04:31:45;3.42;;;3.08;;
15952;SDS011;8075;47.766;8.846;2023-06-14T04:34:11;3.08;;;2.78;;
15952;SDS011;8075;47.766;8.846;2023-06-14T04:36:43;3.13;;;2.80;;
15952;SDS011;8075;47.766;8.846;2023-06-14T04:39:18;3.20;;;2.90;;
15952;SDS011;8075;47.766;8.846;2023-06-14T04:41:44;3.83;;;2.90;;
15952;SDS011;8075;47.766;8.846;2023-06-14T04:44:11;3.10;;;2.70;;
15952;SDS011;8075;47.766;8.846;2023-06-14T04:46:38;2.70;;;2.50;;
15952;SDS011;8075;47.766;8.846;2023-06-14T04:49:13;3.20;;;3.00;;
15952;SDS011;8075;47.766;8.846;2023-06-14T04:51:40;2.88;;;2.67;;
15952;SDS011;8075;47.766;8.846;2023-06-14T04:54:07;3.42;;;2.90;;
15952;SDS011;8075;47.766;8.846;2023-06-14T04:56:35;3.22;;;3.00;;
15952;SDS011;8075;47.766;8.846;2023-06-14T04:59:02;2.93;;;2.70;;
15952;SDS011;8075;47.766;8.846;2023-06-14T05:01:31;3.10;;;2.72;;
15952;SDS011;8075;47.766;8.846;2023-06-14T05:03:58;3.20;;;2.90;;
15952;SDS011;8075;47.766;8.846;2023-06-14T05:06:24;4.20;;;2.90;;
15952;SDS011;8075;47.766;8.846;2023-06-14T05:08:52;3.30;;;3.00;;
15952;SDS011;8075;47.766;8.846;2023-06-14T05:11:18;3.30;;;3.00;;
15952;SDS011;8075;47.766;8.846;2023-06-14T05:13:44;4.07;;;2.78;;
15952;SDS011;8075;47.766;8.846;2023-06-14T05:16:11;4.22;;;2.75;;
15952;SDS011;8075;47.766;8.846;2023-06-14T05:18:37;3.03;;;2.83;;
15952;SDS011;8075;47.766;8.846;2023-06-14T05:21:05;3.05;;;2.67;;
15952;SDS011;8075;47.766;8.846;2023-06-14T05:23:31;3.20;;;2.90;;
15952;SDS011;8075;47.766;8.846;2023-06-14T05:25:57;3.30;;;3.00;;
15952;SDS011;8075;47.766;8.846;2023-06-14T05:28:23;3.05;;;2.72;;
15952;SDS011;8075;47.766;8.846;2023-06-14T05:30:51;2.95;;;2.60;;
15952;SDS011;8075;47.766;8.846;2023-06-14T05:33:19;3.72;;;2.72;;
15952;SDS011;8075;47.766;8.846;2023-06-14T05:35:45;3.30;;;2.80;;
15952;SDS011;8075;47.766;8.846;2023-06-14T05:38:11;2.90;;;2.70;;
15952;SDS011;8075;47.766;8.846;2023-06-14T05:40:37;3.25;;;2.50;;
15952;SDS011;8075;47.766;8.846;2023-06-14T05:43:03;5.60;;;3.05;;
15952;SDS011;8075;47.766;8.846;2023-06-14T05:45:29;3.50;;;2.97;;
15952;SDS011;8075;47.766;8.846;2023-06-14T05:47:55;2.83;;;2.63;;
15952;SDS011;8075;47.766;8.846;2023-06-14T05:50:21;2.97;;;2.78;;
15952;SDS011;8075;47.766;8.846;2023-06-14T05:52:47;4.50;;;3.10;;
15952;SDS011;8075;47.766;8.846;2023-06-14T05:55:15;3.30;;;3.00;;
15952;SDS011;8075;47.766;8.846;2023-06-14T05:57:41;3.38;;;2.80;;
15952;SDS011;8075;47.766;8.846;2023-06-14T06:00:07;3.40;;;3.10;;
15952;SDS011;8075;47.766;8.846;2023-06-14T06:02:43;3.63;;;3.10;;
15952;SDS011;8075;47.766;8.846;2023-06-14T06:05:10;3.00;;;2.70;;
15952;SDS011;8075;47.766;8.846;2023-06-14T06:07:37;4.07;;;3.00;;
15952;SDS011;8075;47.766;8.846;2023-06-14T06:10:03;3.00;;;2.80;;
15952;SDS011;8075;47.766;8.846;2023-06-14T06:12:30;3.15;;;2.95;;
15952;SDS011;8075;47.766;8.846;2023-06-14T06:14:56;3.20;;;2.80;;
15952;SDS011;8075;47.766;8.846;2023-06-14T06:17:22;3.43;;;3.13;;
15952;SDS011;8075;47.766;8.846;2023-06-14T06:19:48;3.05;;;2.70;;
15952;SDS011;8075;47.766;8.846;2023-06-14T06:22:14;5.05;;;2.80;;
15952;SDS011;8075;47.766;8.846;2023-06-14T06:24:40;3.80;;;3.03;;
15952;SDS011;8075;47.766;8.846;2023-06-14T06:27:06;3.70;;;3.00;;
15952;SDS011;8075;47.766;8.846;2023-06-14T06:29:35;4.33;;;3.20;;
15952;SDS011;8075;47.766;8.846;2023-06-14T06:32:01;3.67;;;2.90;;
15952;SDS011;8075;47.766;8.846;2023-06-14T06:34:28;4.40;;;3.00;;
15952;SDS011;8075;47.766;8.846;2023-06-14T06:36:54;4.63;;;2.85;;
15952;SDS011;8075;47.766;8.846;2023-06-14T06:39:20;4.95;;;2.80;;
15952;SDS011;8075;47.766;8.846;2023-06-14T06:41:46;3.40;;;2.72;;
15952;SDS011;8075;47.766;8.846;2023-06-14T06:44:12;5.20;;;2.63;;
15952;SDS011;8075;47.766;8.846;2023-06-14T06:46:38;3.70;;;2.70;;
15952;SDS011;8075;47.766;8.846;2023-06-14T06:49:06;3.38;;;2.95;;
15952;SDS011;8075;47.766;8.846;2023-06-14T06:51:32;3.30;;;2.80;;
15952;SDS011;8075;47.766;8.846;2023-06-14T06:53:58;3.33;;;2.97;;
15952;SDS011;8075;47.766;8.846;2023-06-14T06:56:24;2.90;;;2.70;;
15952;SDS011;8075;47.766;8.846;2023-06-14T06:58:50;3.20;;;2.90;;
15952;SDS011;8075;47.766;8.846;2023-06-14T07:01:17;4.28;;;2.80;;
15952;SDS011;8075;47.766;8.846;2023-06-14T07:03:44;3.67;;;2.72;;
15952;SDS011;8075;47.766;8.846;2023-06-14T07:06:10;4.47;;;2.97;;
15952;SDS011;8075;47.766;8.846;2023-06-14T07:08:36;2.95;;;2.67;;
15952;SDS011;8075;47.766;8.846;2023-06-14T07:11:06;3.60;;;3.00;;
15952;SDS011;8075;47.766;8.846;2023-06-14T07:13:32;3.03;;;2.70;;
15952;SDS011;8075;47.766;8.846;2023-06-14T07:15:58;4.93;;;2.60;;
15952;SDS011;8075;47.766;8.846;2023-06-14T07:18:25;2.78;;;2.58;;
15952;SDS011;8075;47.766;8.846;2023-06-14T07:20:51;3.97;;;2.55;;
15952;SDS011;8075;47.766;8.846;2023-06-14T07:23:18;3.13;;;2.80;;
15952;SDS011;8075;47.766;8.846;2023-06-14T07:25:45;4.38;;;2.90;;
15952;SDS011;8075;47.766;8.846;2023-06-14T07:28:11;3.50;;;2.70;;
15952;SDS011;8075;47.766;8.846;2023-06-14T07:30:37;4.50;;;2.60;;
15952;SDS011;8075;47.766;8.846;2023-06-14T07:33:03;3.22;;;2.47;;
15952;SDS011;8075;47.766;8.846;2023-06-14T07:35:29;2.78;;;2.50;;
15952;SDS011;8075;47.766;8.846;2023-06-14T07:37:55;5.43;;;2.97;;
15952;SDS011;8075;47.766;8.846;2023-06-14T07:40:21;6.28;;;2.80;;
15952;SDS011;8075;47.766;8.846;2023-06-14T07:42:47;3.13;;;2.60;;
15952;SDS011;8075;47.766;8.846;2023-06-14T07:45:15;2.88;;;2.67;;
15952;SDS011;8075;47.766;8.846;2023-06-14T07:47:41;2.83;;;2.50;;
15952;SDS011;8075;47.766;8.846;2023-06-14T07:50:07;3.15;;;2.53;;
15952;SDS011;8075;47.766;8.846;2023-06-14T07:52:33;4.07;;;2.40;;
15952;SDS011;8075;47.766;8.846;2023-06-14T07:54:59;8.57;;;2.70;;
15952;SDS011;8075;47.766;8.846;2023-06-14T07:57:25;3.22;;;2.80;;
15952;SDS011;8075;47.766;8.846;2023-06-14T07:59:51;3.90;;;2.80;;
15952;SDS011;8075;47.766;8.846;2023-06-14T08:02:17;3.70;;;2.88;;
15952;SDS011;8075;47.766;8.846;2023-06-14T08:04:43;2.90;;;2.60;;
15952;SDS011;8075;47.766;8.846;2023-06-14T08:07:10;4.70;;;2.97;;
15952;SDS011;8075;47.766;8.846;2023-06-14T08:09:37;4.25;;;2.72;;
15952;SDS011;8075;47.766;8.846;2023-06-14T08:12:03;3.80;;;2.75;;
15952;SDS011;8075;47.766;8.846;2023-06-14T08:14:32;4.70;;;2.53;;
15952;SDS011;8075;47.766;8.846;2023-06-14T08:16:58;4.47;;;2.65;;
15952;SDS011;8075;47.766;8.846;2023-06-14T08:19:24;3.95;;;2.50;;
15952;SDS011;8075;47.766;8.846;2023-06-14T08:21:50;4.90;;;2.67;;
15952;SDS011;8075;47.766;8.846;2023-06-14T08:24:16;2.70;;;2.10;;
15952;SDS011;8075;47.766;8.846;2023-06-14T08:26:43;4.57;;;2.20;;
15952;SDS011;8075;47.766;8.846;2023-06-14T08:29:10;3.42;;;2.40;;
15952;SDS011;8075;47.766;8.846;2023-06-14T08:31:36;3.35;;;2.47;;
15952;SDS011;8075;47.766;8.846;2023-06-14T08:34:02;4.55;;;2.30;;
15952;SDS011;8075;47.766;8.846;2023-06-14T08:36:28;2.60;;;2.40;;
15952;SDS011;8075;47.766;8.846;2023-06-14T08:38:54;2.90;;;2.30;;
15952;SDS011;8075;47.766;8.846;2023-06-14T08:41:21;3.83;;;2.28;;
15952;SDS011;8075;47.766;8.846;2023-06-14T08:43:48;3.07;;;2.50;;
15952;SDS011;8075;47.766;8.846;2023-06-14T08:46:14;2.45;;;2.20;;
15952;SDS011;8075;47.766;8.846;2023-06-14T08:48:45;3.50;;;2.40;;
15952;SDS011;8075;47.766;8.846;2023-06-14T08:51:11;2.93;;;2.33;;
15952;SDS011;8075;47.766;8.846;2023-06-14T08:53:37;3.40;;;2.30;;
15952;SDS011;8075;47.766;8.846;2023-06-14T08:56:07;3.35;;;2.45;;
15952;SDS011;8075;47.766;8.846;2023-06-14T08:58:38;2.57;;;2.30;;
15952;SDS011;8075;47.766;8.846;2023-06-14T09:01:08;2.50;;;2.30;;
15952;SDS011;8075;47.766;8.846;2023-06-14T09:03:39;2.33;;;2.13;;
15952;SDS011;8075;47.766;8.846;2023-06-14T09:06:05;3.08;;;2.30;;
15952;SDS011;8075;47.766;8.846;2023-06-14T09:08:33;2.60;;;2.40;;
15952;SDS011;8075;47.766;8.846;2023-06-14T09:11:01;2.35;;;2.15;;
15952;SDS011;8075;47.766;8.846;2023-06-14T09:13:27;3.80;;;2.25;;
15952;SDS011;8075;47.766;8.846;2023-06-14T09:15:53;2.75;;;2.17;;
15952;SDS011;8075;47.766;8.846;2023-06-14T09:18:19;3.25;;;2.30;;
15952;SDS011;8075;47.766;8.846;2023-06-14T09:20:46;2.35;;;2.15;;
15952;SDS011;8075;47.766;8.846;2023-06-14T09:23:13;3.05;;;2.17;;
15952;SDS011;8075;47.766;8.846;2023-06-14T09:25:45;2.60;;;2.30;;
15952;SDS011;8075;47.766;8.846;2023-06-14T09:28:11;3.33;;;2.28;;
15952;SDS011;8075;47.766;8.846;2023-06-14T09:30:37;2.72;;;2.50;;
15952;SDS011;8075;47.766;8.846;2023-06-14T09:33:03;2.45;;;2.20;;
15952;SDS011;8075;47.766;8.846;2023-06-14T09:35:33;3.33;;;2.17;;
15952;SDS011;8075;47.766;8.846;2023-06-14T09:37:59;6.10;;;2.60;;
15952;SDS011;8075;47.766;8.846;2023-06-14T09:40:26;2.55;;;2.35;;
15952;SDS011;8075;47.766;8.846;2023-06-14T09:42:52;3.00;;;2.35;;
15952;SDS011;8075;47.766;8.846;2023-06-14T09:45:18;3.45;;;2.35;;
15952;SDS011;8075;47.766;8.846;2023-06-14T09:47:48;3.77;;;2.50;;
15952;SDS011;8075;47.766;8.846;2023-06-14T09:50:14;3.00;;;2.25;;
15952;SDS011;8075;47.766;8.846;2023-06-14T09:52:41;2.42;;;2.22;;
15952;SDS011;8075;47.766;8.846;2023-06-14T09:55:11;3.75;;;2.03;;
15952;SDS011;8075;47.766;8.846;2023-06-14T09:57:38;2.40;;;2.20;;
15952;SDS011;8075;47.766;8.846;2023-06-14T10:00:06;3.33;;;2.60;;
15952;SDS011;8075;47.766;8.846;2023-06-14T10:02:36;2.65;;;2.40;;
15952;SDS011;8075;47.766;8.846;2023-06-14T10:05:03;3.50;;;2.57;;
15952;SDS011;8075;47.766;8.846;2023-06-14T10:07:52;3.08;;;2.72;;
15952;SDS011;8075;47.766;8.846;2023-06-14T10:10:19;5.70;;;2.83;;
15952;SDS011;8075;47.766;8.846;2023-06-14T10:12:45;2.92;;;2.60;;
15952;SDS011;8075;47.766;8.846;2023-06-14T10:15:16;2.97;;;2.63;;
15952;SDS011;8075;47.766;8.846;2023-06-14T10:17:47;2.90;;;2.70;;
15952;SDS011;8075;47.766;8.846;2023-06-14T10:22:48;2.85;;;2.33;;
15952;SDS011;8075;47.766;8.846;2023-06-14T10:25:27;2.72;;;2.45;;
15952;SDS011;8075;47.766;8.846;2023-06-14T10:28:02;3.47;;;2.53;;
15952;SDS011;8075;47.766;8.846;2023-06-14T10:30:28;2.72;;;2.53;;
15952;SDS011;8075;47.766;8.846;2023-06-14T10:33:07;3.35;;;2.72;;
15952;SDS011;8075;47.766;8.846;2023-06-14T10:35:35;3.63;;;2.30;;
15952;SDS011;8075;47.766;8.846;2023-06-14T10:38:08;3.60;;;2.53;;
15952;SDS011;8075;47.766;8.846;2023-06-14T10:40:34;4.32;;;2.70;;
15952;SDS011;8075;47.766;8.846;2023-06-14T10:43:00;2.70;;;2.50;;
15952;SDS011;8075;47.766;8.846;2023-06-14T10:45:26;2.97;;;2.67;;
15952;SDS011;8075;47.766;8.846;2023-06-14T10:47:52;2.63;;;2.42;;
15952;SDS011;8075;47.766;8.846;2023-06-14T10:50:22;3.85;;;2.60;;
15952;SDS011;8075;47.766;8.846;2023-06-14T10:52:53;2.90;;;2.70;;
15952;SDS011;8075;47.766;8.846;2023-06-14T10:55:19;2.80;;;2.60;;
15952;SDS011;8075;47.766;8.846;2023-06-14T10:57:51;3.40;;;2.55;;
15952;SDS011;8075;47.766;8.846;2023-06-14T11:00:28;2.55;;;2.35;;
15952;SDS011;8075;47.766;8.846;2023-06-14T11:05:53;3.38;;;2.65;;
15952;SDS011;8075;47.766;8.846;2023-06-14T11:11:08;3.67;;;2.60;;
15952;SDS011;8075;47.766;8.846;2023-06-14T11:13:38;3.30;;;2.88;;
15952;SDS011;8075;47.766;8.846;2023-06-14T11:16:10;3.60;;;2.50;;
15952;SDS011;8075;47.766;8.846;2023-06-14T11:18:36;3.10;;;2.50;;
15952;SDS011;8075;47.766;8.846;2023-06-14T11:21:02;2.90;;;2.60;;
15952;SDS011;8075;47.766;8.846;2023-06-14T11:23:28;3.97;;;2.50;;
15952;SDS011;8075;47.766;8.846;2023-06-14T11:25:54;2.70;;;2.50;;
15952;SDS011;8075;47.766;8.846;2023-06-14T11:28:20;2.90;;;2.53;;
15952;SDS011;8075;47.766;8.846;2023-06-14T11:30:48;2.90;;;2.70;;
15952;SDS011;8075;47.766;8.846;2023-06-14T11:33:17;3.40;;;2.42;;
15952;SDS011;8075;47.766;8.846;2023-06-14T11:35:44;2.77;;;2.57;;
15952;SDS011;8075;47.766;8.846;2023-06-14T11:38:10;3.35;;;2.50;;
15952;SDS011;8075;47.766;8.846;2023-06-14T11:40:37;2.60;;;2.40;;
15952;SDS011;8075;47.766;8.846;2023-06-14T11:43:03;3.03;;;2.60;;
15952;SDS011;8075;47.766;8.846;2023-06-14T11:45:30;4.05;;;2.60;;
15952;SDS011;8075;47.766;8.846;2023-06-14T11:47:58;2.65;;;2.45;;
15952;SDS011;8075;47.766;8.846;2023-06-14T11:50:25;4.55;;;2.25;;
15952;SDS011;8075;47.766;8.846;2023-06-14T11:55:20;3.03;;;2.20;;
15952;SDS011;8075;47.766;8.846;2023-06-14T11:57:47;4.53;;;2.25;;
15952;SDS011;8075;47.766;8.846;2023-06-14T12:00:13;2.55;;;2.28;;
15952;SDS011;8075;47.766;8.846;2023-06-14T12:02:40;2.88;;;2.42;;
15952;SDS011;8075;47.766;8.846;2023-06-14T12:05:07;4.88;;;2.25;;
15952;SDS011;8075;47.766;8.846;2023-06-14T12:07:35;5.57;;;2.60;;
15952;SDS011;8075;47.766;8.846;2023-06-14T12:12:34;2.80;;;2.47;;
15952;SDS011;8075;47.766;8.846;2023-06-14T12:15:02;3.60;;;2.70;;
15952;SDS011;8075;47.766;8.846;2023-06-14T12:17:31;2.80;;;2.20;;
15952;SDS011;8075;47.766;8.846;2023-06-14T12:19:57;4.65;;;2.53;;
15952;SDS011;8075;47.766;8.846;2023-06-14T12:22:23;4.70;;;2.40;;
15952;SDS011;8075;47.766;8.846;2023-06-14T12:24:49;4.10;;;2.40;;
15952;SDS011;8075;47.766;8.846;2023-06-14T12:27:15;3.05;;;2.70;;
15952;SDS011;8075;47.766;8.846;2023-06-14T12:29:43;2.57;;;2.23;;
15952;SDS011;8075;47.766;8.846;2023-06-14T12:32:10;2.70;;;2.50;;
15952;SDS011;8075;47.766;8.846;2023-06-14T12:34:36;3.70;;;2.50;;
15952;SDS011;8075;47.766;8.846;2023-06-14T12:37:02;3.00;;;2.70;;
15952;SDS011;8075;47.766;8.846;2023-06-14T12:39:31;4.80;;;2.58;;
15952;SDS011;8075;47.766;8.846;2023-06-14T12:41:57;3.83;;;2.42;;
15952;SDS011;8075;47.766;8.846;2023-06-14T12:44:24;2.88;;;2.47;;
15952;SDS011;8075;47.766;8.846;2023-06-14T12:46:50;3.05;;;2.45;;
15952;SDS011;8075;47.766;8.846;2023-06-14T12:49:18;3.45;;;2.45;;
15952;SDS011;8075;47.766;8.846;2023-06-14T12:51:45;3.90;;;2.50;;
15952;SDS011;8075;47.766;8.846;2023-06-14T12:54:11;2.43;;;2.23;;
15952;SDS011;8075;47.766;8.846;2023-06-14T12:56:37;3.80;;;2.30;;
15952;SDS011;8075;47.766;8.846;2023-06-14T12:59:03;4.40;;;2.30;;
15952;SDS011;8075;47.766;8.846;2023-06-14T13:01:31;2.55;;;2.35;;
15952;SDS011;8075;47.766;8.846;2023-06-14T13:03:56;2.60;;;2.40;;
15952;SDS011;8075;47.766;8.846;2023-06-14T13:06:23;3.47;;;2.58;;
15952;SDS011;8075;47.766;8.846;2023-06-14T13:08:50;2.40;;;2.30;;
15952;SDS011;8075;47.766;8.846;2023-06-14T13:11:16;3.50;;;2.53;;
15952;SDS011;8075;47.766;8.846;2023-06-14T13:13:42;4.15;;;2.40;;
15952;SDS011;8075;47.766;8.846;2023-06-14T13:16:08;3.30;;;2.50;;
15952;SDS011;8075;47.766;8.846;2023-06-14T13:18:35;2.88;;;2.58;;
15952;SDS011;8075;47.766;8.846;2023-06-14T13:21:01;3.47;;;2.63;;
15952;SDS011;8075;47.766;8.846;2023-06-14T13:23:27;4.53;;;2.28;;
15952;SDS011;8075;47.766;8.846;2023-06-14T13:25:53;3.37;;;2.40;;
15952;SDS011;8075;47.766;8.846;2023-06-14T13:28:19;3.30;;;2.50;;
15952;SDS011;8075;47.766;8.846;2023-06-14T13:30:46;3.25;;;2.40;;
15952;SDS011;8075;47.766;8.846;2023-06-14T13:33:12;2.45;;;2.25;;
15952;SDS011;8075;47.766;8.846;2023-06-14T13:35:38;4.20;;;2.60;;
15952;SDS011;8075;47.766;8.846;2023-06-14T13:38:05;3.30;;;2.70;;
15952;SDS011;8075;47.766;8.846;2023-06-14T13:40:31;4.50;;;2.50;;
15952;SDS011;8075;47.766;8.846;2023-06-14T13:42:57;3.80;;;2.60;;
15952;SDS011;8075;47.766;8.846;2023-06-14T13:45:23;4.45;;;2.72;;
15952;SDS011;8075;47.766;8.846;2023-06-14T13:47:49;2.85;;;2.55;;
15952;SDS011;8075;47.766;8.846;2023-06-14T13:50:15;2.30;;;2.10;;
15952;SDS011;8075;47.766;8.846;2023-06-14T13:52:41;2.65;;;2.40;;
15952;SDS011;8075;47.766;8.846;2023-06-14T13:55:07;5.37;;;2.80;;
15952;SDS011;8075;47.766;8.846;2023-06-14T13:57:34;2.80;;;2.60;;
15952;SDS011;8075;47.766;8.846;2023-06-14T14:00:00;3.70;;;2.42;;
15952;SDS011;8075;47.766;8.846;2023-06-14T14:02:28;3.17;;;2.60;;
15952;SDS011;8075;47.766;8.846;2023-06-14T14:04:55;2.92;;;2.42;;
15952;SDS011;8075;47.766;8.846;2023-06-14T14:07:22;2.58;;;2.38;;
15952;SDS011;8075;47.766;8.846;2023-06-14T14:09:48;2.75;;;2.30;;
15952;SDS011;8075;47.766;8.846;2023-06-14T14:12:14;3.92;;;2.45;;
15952;SDS011;8075;47.766;8.846;2023-06-14T14:14:40;2.60;;;2.40;;
15952;SDS011;8075;47.766;8.846;2023-06-14T14:17:06;4.80;;;2.60;;
15952;SDS011;8075;47.766;8.846;2023-06-14T14:19:32;3.00;;;2.70;;
15952;SDS011;8075;47.766;8.846;2023-06-14T14:21:58;3.80;;;2.60;;
15952;SDS011;8075;47.766;8.846;2023-06-14T14:24:26;4.43;;;2.65;;
15952;SDS011;8075;47.766;8.846;2023-06-14T14:26:52;3.45;;;2.50;;
15952;SDS011;8075;47.766;8.846;2023-06-14T14:29:18;4.45;;;2.90;;
15952;SDS011;8075;47.766;8.846;2023-06-14T14:31:45;4.20;;;2.63;;
15952;SDS011;8075;47.766;8.846;2023-06-14T14:34:11;3.47;;;2.45;;
15952;SDS011;8075;47.766;8.846;2023-06-14T14:36:37;2.80;;;2.50;;
15952;SDS011;8075;47.766;8.846;2023-06-14T14:39:07;3.00;;;2.50;;
15952;SDS011;8075;47.766;8.846;2023-06-14T14:41:33;2.88;;;2.47;;
15952;SDS011;8075;47.766;8.846;2023-06-14T14:43:59;3.00;;;2.70;;
15952;SDS011;8075;47.766;8.846;2023-06-14T14:46:25;2.70;;;2.50;;
15952;SDS011;8075;47.766;8.846;2023-06-14T14:48:51;2.90;;;2.50;;
15952;SDS011;8075;47.766;8.846;2023-06-14T14:51:17;4.03;;;2.75;;
15952;SDS011;8075;47.766;8.846;2023-06-14T14:53:43;2.92;;;2.65;;
15952;SDS011;8075;47.766;8.846;2023-06-14T14:56:10;4.35;;;2.78;;
15952;SDS011;8075;47.766;8.846;2023-06-14T14:58:37;2.60;;;2.40;;
15952;SDS011;8075;47.766;8.846;2023-06-14T15:01:03;3.33;;;2.63;;
15952;SDS011;8075;47.766;8.846;2023-06-14T15:03:30;3.60;;;2.67;;
15952;SDS011;8075;47.766;8.846;2023-06-14T15:05:57;3.17;;;2.72;;
15952;SDS011;8075;47.766;8.846;2023-06-14T15:08:23;3.00;;;2.70;;
15952;SDS011;8075;47.766;8.846;2023-06-14T15:10:49;2.80;;;2.60;;
15952;SDS011;8075;47.766;8.846;2023-06-14T15:13:15;3.08;;;2.78;;
15952;SDS011;8075;47.766;8.846;2023-06-14T15:15:41;3.33;;;3.00;;
15952;SDS011;8075;47.766;8.846;2023-06-14T15:18:07;3.50;;;2.73;;
15952;SDS011;8075;47.766;8.846;2023-06-14T15:20:34;5.47;;;2.83;;